EW8143 Sater SE current weather conditions

sailwx.info

Wind from 199 at 10 knots gusting 18

Air temperature 5.0° C
Dewpoint 2.0° C

Last reported at 2019-Dec-05 15:01 UTC.
Time now 2019-Dec-05 15:34 UTC

Location: N 60°25' E 015°35'.
View on Google Maps.

See reports from other nearby stations

  
Tides and Currents Weather Stations Pressure Air Temp Water Temp Dewpoint Dewpoint Depression Visibility Wind Speed Wind Dir Waves Ship Positions
date/time (UTC)wind fromknots sea level pressurealtimeterstation pressurevisibilityair tempwater tempwave heightnotes
2019-Dec-05 15:01 199 10 gusting 18 5.0
2019-Dec-05 14:46 217 6 gusting 14 5.0
2019-Dec-05 14:30 202 6 gusting 17 5.0
2019-Dec-05 14:16 216 2 gusting 15 5.0
2019-Dec-05 14:00 170 4 gusting 16 5.0
2019-Dec-05 13:45 180 6 gusting 16 5.0
2019-Dec-05 13:30 208 7 gusting 19 5.0
2019-Dec-05 13:16 215 6 gusting 15 5.0
2019-Dec-05 13:00 233 5 gusting 12 5.0
2019-Dec-05 12:45 244 8 gusting 13 5.0
2019-Dec-05 12:30 233 7 gusting 13 5.0
2019-Dec-05 12:15 232 5 gusting 13 5.0
2019-Dec-05 12:00 210 4 gusting 18 5.6
2019-Dec-05 11:45 180 5 gusting 13 5.0
2019-Dec-05 11:30 199 10 gusting 19 5.6
2019-Dec-05 11:15 192 5 gusting 12 5.0
2019-Dec-05 11:00 200 6 gusting 15 5.0
2019-Dec-05 10:47 195 6 gusting 19 5.0
2019-Dec-05 10:32 237 9 gusting 16 5.0
2019-Dec-05 10:17 200 4 gusting 12 5.0
2019-Dec-05 10:01 232 6 gusting 16 5.0
2019-Dec-05 09:46 234 6 gusting 14 5.0
2019-Dec-05 09:33 222 10 gusting 15 4.4
2019-Dec-05 09:16 200 6 gusting 15 5.0
2019-Dec-05 09:01 249 6 gusting 21 5.0
2019-Dec-05 08:46 234 3 gusting 12 5.0
2019-Dec-05 08:31 5.0
2019-Dec-05 08:16 5.0
2019-Dec-05 08:01 5.0
2019-Dec-05 07:46 5.0
2019-Dec-05 07:30 5.0
2019-Dec-05 07:15 5.0
2019-Dec-05 07:00 5.0
2019-Dec-05 06:45 5.0
2019-Dec-05 06:30 5.0
2019-Dec-05 06:15 5.0
2019-Dec-05 06:02 5.0
2019-Dec-05 05:47 4.4
2019-Dec-05 05:32 4.4
2019-Dec-05 05:17 4.4
2019-Dec-05 05:01 4.4
2019-Dec-05 04:46 199 3 gusting 12 4.4
2019-Dec-05 04:31 220 4 gusting 8 4.4
2019-Dec-05 04:16 239 5 gusting 12 4.4
2019-Dec-05 04:00 215 1 gusting 11 5.0
2019-Dec-05 03:45 233 5 gusting 13 4.4
2019-Dec-05 03:31 216 2 gusting 7 4.4
2019-Dec-05 03:15 231 3 gusting 9 4.4
2019-Dec-05 03:02 220 5 gusting 9 4.4
2019-Dec-05 02:45 219 6 gusting 10 4.4
2019-Dec-05 02:31 226 6 gusting 17 4.4
2019-Dec-05 02:15 208 5 gusting 14 4.4
2019-Dec-05 02:00 225 7 gusting 14 4.4
2019-Dec-05 01:45 214 6 gusting 13 4.4
2019-Dec-05 01:30 241 6 gusting 9 4.4
2019-Dec-05 01:15 244 3 gusting 10 4.4
2019-Dec-05 01:00 216 4 gusting 8 4.4
2019-Dec-05 00:45 245 6 gusting 11 4.4
2019-Dec-05 00:30 215 4 gusting 10 3.9
2019-Dec-05 00:15 233 6 gusting 13 3.9
2019-Dec-05 00:00 210 3 gusting 8 3.9
2019-Dec-04 23:45 227 6 gusting 10 3.9
2019-Dec-04 23:30 205 5 gusting 14 3.9
2019-Dec-04 23:17 223 7 gusting 14 3.9
2019-Dec-04 23:04 233 7 gusting 13 3.9
2019-Dec-04 22:46 221 5 gusting 12 3.9
2019-Dec-04 22:31 225 5 gusting 10 3.3
2019-Dec-04 22:16 239 4 gusting 16 3.9
2019-Dec-04 22:01 244 5 gusting 12 3.3
2019-Dec-04 21:47 180 7 gusting 13 3.3
2019-Dec-04 21:32 216 5 gusting 12 3.3
2019-Dec-04 21:16 184 2 gusting 7 3.3
2019-Dec-04 21:01 182 4 gusting 9 3.3
2019-Dec-04 20:46 210 6 gusting 12 3.3
2019-Dec-04 20:31 181 4 gusting 11 3.3
2019-Dec-04 20:16 188 3 gusting 12 3.3
2019-Dec-04 20:01 196 6 gusting 14 3.3
2019-Dec-04 19:46 208 3 gusting 11 2.8
2019-Dec-04 19:31 229 1 gusting 8 2.8
2019-Dec-04 19:16 246 3 gusting 10 2.8
2019-Dec-04 19:01 269 4 gusting 10 2.8
2019-Dec-04 18:45 233 0 gusting 7 2.8
2019-Dec-04 18:30 242 4 gusting 11 2.8
2019-Dec-04 18:16 236 2 gusting 12 2.8
2019-Dec-04 18:00 247 6 gusting 13 2.8
2019-Dec-04 17:45 248 6 gusting 15 2.8
2019-Dec-04 17:30 231 3 gusting 8 2.8
2019-Dec-04 17:15 186 4 gusting 8 2.8
2019-Dec-04 17:00 207 7 gusting 13 2.8
2019-Dec-04 16:45 205 6 gusting 10 2.8
2019-Dec-04 16:30 230 3 gusting 7 2.8
2019-Dec-04 16:15 217 4 gusting 8 2.8
2019-Dec-04 16:00 190 3 gusting 6 2.8
2019-Dec-04 15:45 194 4 gusting 7 2.8
2019-Dec-04 15:30 202 3 gusting 8 2.8
2019-Dec-04 15:15 192 4 gusting 7 2.8
2019-Dec-04 15:00 189 3 gusting 6 2.8
2019-Dec-04 14:45 205 3 gusting 7 2.8
2019-Dec-04 14:30 225 2 gusting 6 2.8
2019-Dec-04 14:15 215 3 gusting 6 2.8
2019-Dec-04 14:00 214 0 gusting 6 2.8
2019-Dec-04 13:31 186 2 gusting 6 2.8
2019-Dec-04 13:17 202 1 gusting 4 2.8
2019-Dec-04 13:01 207 3 gusting 6 2.8
2019-Dec-04 12:46 203 1 gusting 5 2.8
2019-Dec-04 12:32 199 3 gusting 6 2.8
2019-Dec-04 12:17 198 2 gusting 7 3.3
2019-Dec-04 12:02 211 4 gusting 8 3.3
2019-Dec-04 11:46 190 3 gusting 8 2.8
2019-Dec-04 11:32 212 3 gusting 6 2.8
2019-Dec-04 11:16 203 5 gusting 8 2.8
2019-Dec-04 11:01 198 5 gusting 8 2.8
2019-Dec-04 10:46 194 3 gusting 6 2.2
2019-Dec-04 10:31 182 4 gusting 6 2.2
2019-Dec-04 10:17 213 3 gusting 5 1.7
2019-Dec-04 10:01 264 0 gusting 3 1.7
2019-Dec-04 09:46 205 1 gusting 5 1.7
2019-Dec-04 09:32 196 2 gusting 6 1.7
2019-Dec-04 09:16 200 4 gusting 8 1.1
2019-Dec-04 09:01 207 0.6
2019-Dec-04 08:46 188 0.6
2019-Dec-04 08:30 193 -0.0
2019-Dec-04 08:15 194 -0.0
2019-Dec-04 08:01 -0.0
2019-Dec-04 07:45 0.6
2019-Dec-04 07:30 0.6
2019-Dec-04 07:15 -0.0
2019-Dec-04 07:01 -0.6
2019-Dec-04 06:46 -2.8
2019-Dec-04 06:32 -2.8
2019-Dec-04 06:16 -2.2
2019-Dec-04 06:01 -1.7
2019-Dec-04 05:46 -1.1
2019-Dec-04 05:30 -0.6
2019-Dec-04 05:16 -0.0
2019-Dec-04 05:00 1.1
2019-Dec-04 04:45 1.1
2019-Dec-04 04:30 0.6
2019-Dec-04 04:15 -0.6
2019-Dec-04 04:00 -1.7
2019-Dec-04 03:45 -1.1
2019-Dec-04 03:32 -1.1
2019-Dec-04 03:17 -0.6
2019-Dec-04 03:02 -0.0
2019-Dec-04 02:46 0.6
2019-Dec-04 02:31 0.6
2019-Dec-04 02:16 0.6
2019-Dec-04 02:01 192 -0.6
2019-Dec-04 01:46 093 -0.6
2019-Dec-04 01:31 222 -0.0
2019-Dec-04 01:16 263 -0.0
2019-Dec-04 01:00 259 0.6
2019-Dec-04 00:45 259 0.6
2019-Dec-04 00:31 259 0.6
2019-Dec-04 00:15 259 1.1
2019-Dec-04 00:00 313 1.1
2019-Dec-03 23:45 313 1.1
2019-Dec-03 23:31 313 1.1
2019-Dec-03 23:15 292 1.7
2019-Dec-03 23:00 292 1.7
2019-Dec-03 22:45 292 1.7
2019-Dec-03 22:30 297 2.2
2019-Dec-03 22:15 277 2.2
2019-Dec-03 22:00 258 1 gusting 5 2.2
2019-Dec-03 21:45 244 2 gusting 6 2.2
2019-Dec-03 21:30 245 2 gusting 6 2.2
2019-Dec-03 21:15 249 4 gusting 7 2.2
2019-Dec-03 21:00 233 5 gusting 10 1.7
2019-Dec-03 20:45 252 4 gusting 8 1.7
2019-Dec-03 20:33 246 4 gusting 9 1.7
2019-Dec-03 20:17 256 3 gusting 7 1.7
2019-Dec-03 20:02 262 2 gusting 6 1.7
2019-Dec-03 19:47 267 2 gusting 6 1.7
2019-Dec-03 19:32 252 2 gusting 6 1.7
2019-Dec-03 19:19 265 2 gusting 6 1.1
2019-Dec-03 19:01 257 3 gusting 7 1.1
2019-Dec-03 18:48 252 3 gusting 6 1.1
2019-Dec-03 18:32 248 0 gusting 7 1.1
2019-Dec-03 18:16 262 1 gusting 7 0.6
2019-Dec-03 18:01 260 -0.0
2019-Dec-03 17:47 275 -0.0
2019-Dec-03 17:31 275 -0.0
2019-Dec-03 17:16 275 -0.0
2019-Dec-03 17:01 250 -0.0
2019-Dec-03 16:46 255 -0.0
2019-Dec-03 16:31 257 -0.0
2019-Dec-03 16:15 230 -0.0
2019-Dec-03 16:01 217 -0.6
2019-Dec-03 15:46 208 0 gusting 5 -0.6
2019-Dec-03 15:31 223 2 gusting 6 -0.6
2019-Dec-03 15:16 199 0 gusting 6 -0.6
2019-Dec-03 15:01 204 3 gusting 6 -1.1